Time;durP1;ratioP1;P1;durP2;ratioP2;P2;SDS_P1;SDS_P2;PMS_P1;PMS_P2;Temp;Humidity;BMP_temperature;BMP_pressure;BME280_temperature;BME280_humidity;BME280_pressure;Samples;Min_cycle;Max_cycle;Signal;HPM_P1;HPM_P2
2021/12/13 00:00:04;;;;;;;;;;;;;;;;;;5086571;28;19969;-67
2021/12/13 00:02:36;;;;;;;;;;;;;;;;;;5081774;28;21182;-67
2021/12/13 00:05:09;;;;;;;;;;;;;;;;;;5084950;28;19924;-67
2021/12/13 00:07:38;;;;;;;;;;;;;;;;;;5088698;28;19931;-67
2021/12/13 00:10:09;;;;;;;;;;;;;;;;;;5087023;28;19924;-67
2021/12/13 00:12:42;;;;;;;;;;;;;;;;;;5082066;28;19934;-68
2021/12/13 00:15:17;;;;;;;;;;;;;;;;;;5084291;28;19924;-67
2021/12/13 00:17:47;;;;;;;;;;;;;;;;;;5087935;28;19936;-68
2021/12/13 00:20:19;;;;;;;;;;;;;;;;;;5084476;28;19977;-68
2021/12/13 00:22:49;;;;;;;;;;;;;;;;;;5083104;28;19935;-68
2021/12/13 00:25:20;;;;;;;;;;;;;;;;;;5085884;28;19959;-67
2021/12/13 00:27:50;;;;;;;;;;;;;;;;;;5081778;28;19932;-67
2021/12/13 00:30:21;;;;;;;;;;;;;;;;;;5084985;28;20456;-68
2021/12/13 00:32:54;;;;;;;;;;;;;;;;;;5085738;28;19982;-67
2021/12/13 00:35:24;;;;;;;;;;;;;;;;;;5081853;28;20387;-68
2021/12/13 00:37:54;;;;;;;;;;;;;;;;;;5087053;28;19924;-67
2021/12/13 00:40:25;;;;;;;;;;;;;;;;;;5082704;28;19928;-67
2021/12/13 00:42:54;;;;;;;;;;;;;;;;;;5082818;28;21004;-67
2021/12/13 00:45:22;;;;;;;;;;;;;;;;;;5087930;28;19930;-67
2021/12/13 00:47:50;;;;;;;;;;;;;;;;;;5083089;28;19928;-67
2021/12/13 00:50:21;;;;;;;;;;;;;;;;;;5087153;28;19936;-67
2021/12/13 00:52:51;;;;;;;;;;;;;;;;;;5079271;28;19928;-67
2021/12/13 00:55:35;;;;;;;;;;;;;;;;;;5088154;28;20007;-67
2021/12/13 00:58:05;;;;;;;;;;;;;;;;;;5082979;28;19928;-67
2021/12/13 01:00:39;;;;;;;;;;;;;;;;;;5076306;28;19935;-67
2021/12/13 01:03:12;;;;;;;;;;;;;;;;;;5080782;28;19955;-67
2021/12/13 01:05:48;;;;;;;;;;;;;;;;;;5086230;28;19924;-67
2021/12/13 01:08:26;;;;;;;;;;;;;;;;;;5081794;28;19930;-67
2021/12/13 01:10:57;;;;;;;;;;;;;;;;;;5079734;28;19928;-67
2021/12/13 01:13:30;;;;;;;;;;;;;;;;;;5083012;28;19963;-68
2021/12/13 01:16:08;;;;;;;;;;;;;;;;;;5084925;28;19928;-67
2021/12/13 01:18:55;;;;;;;;;;;;;;;;;;5082232;28;19938;-67
2021/12/13 01:21:37;;;;;;;;;;;;;;;;;;5070706;28;19932;-67
2021/12/13 01:24:11;;;;;;;;;;;;;;;;;;5086959;28;20250;-67
2021/12/13 01:26:42;;;;;;;;;;;;;;;;;;5080055;28;19931;-68
2021/12/13 01:29:11;;;;;;;;;;;;;;;;;;5092421;28;19934;-68
2021/12/13 01:31:41;;;;;;;;;;;;;;;;;;5084076;28;19932;-67
2021/12/13 01:34:12;;;;;;;;;;;;;;;;;;5075654;28;19928;-67
2021/12/13 01:36:47;;;;;;;;;;;;;;;;;;5082446;28;20361;-67
2021/12/13 01:39:18;;;;;;;;;;;;;;;;;;5080575;28;19924;-67
2021/12/13 01:41:48;;;;;;;;;;;;;;;;;;5081350;28;19958;-67
2021/12/13 01:44:20;;;;;;;;;;;;;;;;;;5089248;28;19940;-68
2021/12/13 01:46:50;;;;;;;;;;;;;;;;;;5083922;28;19974;-67
2021/12/13 01:49:21;;;;;;;;;;;;;;;;;;5085858;28;20598;-68
2021/12/13 01:51:51;;;;;;;;;;;;;;;;;;5062546;28;19932;-67
2021/12/13 01:54:23;;;;;;;;;;;;;;;;;;5077432;28;19924;-67
2021/12/13 01:56:56;;;;;;;;;;;;;;;;;;5070559;28;19940;-68
2021/12/13 01:59:47;;;;;;;;;;;;;;;;;;5081895;28;19952;-68
2021/12/13 02:02:22;;;;;;;;;;;;;;;;;;5086669;28;19932;-67
2021/12/13 02:04:55;;;;;;;;;;;;;;;;;;5084246;28;19924;-68
2021/12/13 02:07:26;;;;;;;;;;;;;;;;;;5082123;28;19950;-68
2021/12/13 02:09:58;;;;;;;;;;;;;;;;;;5086528;28;19945;-68
2021/12/13 02:12:30;;;;;;;;;;;;;;;;;;5082713;28;19925;-68
2021/12/13 02:17:56;;;;;;;;;;;;;;;;;;5075551;28;19927;-68
2021/12/13 02:20:25;;;;;;;;;;;;;;;;;;5083701;28;19932;-68
2021/12/13 02:22:55;;;;;;;;;;;;;;;;;;5084910;28;19924;-68
2021/12/13 02:25:28;;;;;;;;;;;;;;;;;;5082974;28;19935;-68
2021/12/13 02:27:56;;;;;;;;;;;;;;;;;;5061859;28;19930;-67
2021/12/13 02:30:24;;;;;;;;;;;;;;;;;;5064979;28;19989;-67
2021/12/13 02:32:55;;;;;;;;;;;;;;;;;;5085220;28;20276;-67
2021/12/13 02:35:23;;;;;;;;;;;;;;;;;;5080122;28;20277;-67
2021/12/13 02:37:53;;;;;;;;;;;;;;;;;;5081392;28;19958;-67
2021/12/13 02:40:23;;;;;;;;;;;;;;;;;;5081454;28;19924;-67
2021/12/13 02:42:54;;;;;;;;;;;;;;;;;;5082860;28;19932;-68
2021/12/13 02:45:26;;;;;;;;;;;;;;;;;;5093105;28;20509;-68
2021/12/13 02:47:57;;;;;;;;;;;;;;;;;;5087149;28;19932;-67
2021/12/13 02:50:26;;;;;;;;;;;;;;;;;;5084301;28;19951;-67
2021/12/13 02:52:55;;;;;;;;;;;;;;;;;;5086220;28;19935;-67
2021/12/13 02:55:28;;;;;;;;;;;;;;;;;;5090630;28;19924;-67
2021/12/13 02:57:58;;;;;;;;;;;;;;;;;;5087799;28;19932;-67
2021/12/13 03:00:27;;;;;;;;;;;;;;;;;;5081772;28;19928;-67
2021/12/13 03:02:58;;;;;;;;;;;;;;;;;;5084142;28;19932;-67
2021/12/13 03:05:27;;;;;;;;;;;;;;;;;;5086965;28;19924;-67
2021/12/13 03:08:01;;;;;;;;;;;;;;;;;;5087077;28;20341;-68
2021/12/13 03:10:47;;;;;;;;;;;;;;;;;;5062988;28;19964;-68
2021/12/13 03:13:25;;;;;;;;;;;;;;;;;;5085894;28;19936;-67
2021/12/13 03:15:56;;;;;;;;;;;;;;;;;;5086309;28;19928;-67
2021/12/13 03:18:25;;;;;;;;;;;;;;;;;;5086821;28;19932;-67
2021/12/13 03:20:58;;;;;;;;;;;;;;;;;;5088028;28;20630;-68
2021/12/13 03:23:32;;;;;;;;;;;;;;;;;;5088450;28;20027;-68
2021/12/13 03:26:04;;;;;;;;;;;;;;;;;;5097806;28;19932;-68
2021/12/13 03:28:34;;;;;;;;;;;;;;;;;;5083760;28;19928;-68
2021/12/13 03:31:04;;;;;;;;;;;;;;;;;;5087962;28;19924;-68
2021/12/13 03:33:34;;;;;;;;;;;;;;;;;;5077883;28;20400;-67
2021/12/13 03:36:05;;;;;;;;;;;;;;;;;;5080929;28;19924;-67
2021/12/13 03:38:33;;;;;;;;;;;;;;;;;;5084663;28;19932;-67
2021/12/13 03:41:10;;;;;;;;;;;;;;;;;;5086272;28;19931;-67
2021/12/13 03:43:50;;;;;;;;;;;;;;;;;;5089454;28;20293;-67
2021/12/13 03:46:18;;;;;;;;;;;;;;;;;;5089525;28;19942;-67
2021/12/13 03:48:49;;;;;;;;;;;;;;;;;;5074554;28;20312;-67
2021/12/13 03:51:21;;;;;;;;;;;;;;;;;;5087391;28;19924;-67
2021/12/13 03:53:51;;;;;;;;;;;;;;;;;;5091888;28;19931;-68
2021/12/13 03:56:20;;;;;;;;;;;;;;;;;;5088779;28;20030;-68
2021/12/13 03:58:49;;;;;;;;;;;;;;;;;;5085791;28;19932;-67
2021/12/13 04:01:18;;;;;;;;;;;;;;;;;;5088488;28;20043;-68
2021/12/13 04:03:46;;;;;;;;;;;;;;;;;;5085651;28;20458;-67
2021/12/13 04:06:19;;;;;;;;;;;;;;;;;;5086818;28;19939;-67
2021/12/13 04:08:52;;;;;;;;;;;;;;;;;;5066798;28;19943;-67
2021/12/13 04:11:24;;;;;;;;;;;;;;;;;;5083109;28;19943;-67
2021/12/13 04:13:55;;;;;;;;;;;;;;;;;;5083290;28;19923;-67
2021/12/13 04:16:32;;;;;;;;;;;;;;;;;;5081747;28;19931;-67
2021/12/13 04:21:34;;;;;;;;;;;;;;;;;;5078390;28;20279;-68
2021/12/13 04:24:03;;;;;;;;;;;;;;;;;;5078003;28;19924;-68
2021/12/13 04:26:35;;;;;;;;;;;;;;;;;;5081244;28;19980;-67
2021/12/13 04:29:06;;;;;;;;;;;;;;;;;;5085896;28;20353;-67
2021/12/13 04:31:37;;;;;;;;;;;;;;;;;;5060514;28;20386;-67
2021/12/13 04:34:05;;;;;;;;;;;;;;;;;;5083087;28;19935;-67
2021/12/13 04:36:34;;;;;;;;;;;;;;;;;;5083600;28;19934;-68
2021/12/13 04:39:04;;;;;;;;;;;;;;;;;;5082669;28;22342;-68
2021/12/13 04:41:32;;;;;;;;;;;;;;;;;;5056061;28;19939;-67
2021/12/13 04:44:03;;;;;;;;;;;;;;;;;;5085774;28;19932;-67
2021/12/13 04:46:36;;;;;;;;;;;;;;;;;;5073993;28;19932;-67
2021/12/13 04:49:04;;;;;;;;;;;;;;;;;;5084203;28;19924;-67
2021/12/13 04:51:35;;;;;;;;;;;;;;;;;;5085357;28;19931;-67
2021/12/13 04:54:06;;;;;;;;;;;;;;;;;;5085996;28;19935;-68
2021/12/13 04:56:37;;;;;;;;;;;;;;;;;;5085041;28;19988;-68
2021/12/13 04:59:09;;;;;;;;;;;;;;;;;;5082833;28;19924;-67
2021/12/13 05:01:39;;;;;;;;;;;;;;;;;;5087529;28;19924;-68
2021/12/13 05:04:08;;;;;;;;;;;;;;;;;;5079253;28;19927;-67
2021/12/13 05:06:38;;;;;;;;;;;;;;;;;;5084524;28;19958;-67
2021/12/13 05:09:11;;;;;;;;;;;;;;;;;;5085775;28;19924;-67
2021/12/13 05:11:44;;;;;;;;;;;;;;;;;;5081875;28;19931;-68
2021/12/13 05:14:12;;;;;;;;;;;;;;;;;;5076780;28;20547;-67
2021/12/13 05:16:45;;;;;;;;;;;;;;;;;;5075621;28;19924;-68
2021/12/13 05:19:18;;;;;;;;;;;;;;;;;;5085498;28;19924;-67
2021/12/13 05:21:45;;;;;;;;;;;;;;;;;;5084371;28;19924;-67
2021/12/13 05:24:14;;;;;;;;;;;;;;;;;;5086467;28;19990;-68
2021/12/13 05:26:41;;;;;;;;;;;;;;;;;;5079796;28;19928;-67
2021/12/13 05:29:13;;;;;;;;;;;;;;;;;;5083046;28;19932;-67
2021/12/13 05:31:43;;;;;;;;;;;;;;;;;;5084435;28;19924;-67
2021/12/13 05:34:14;;;;;;;;;;;;;;;;;;5088416;28;19980;-67
2021/12/13 05:36:45;;;;;;;;;;;;;;;;;;5066716;28;19924;-67
2021/12/13 05:39:13;;;;;;;;;;;;;;;;;;5083081;28;19924;-67
2021/12/13 05:41:45;;;;;;;;;;;;;;;;;;5091460;28;19947;-67
2021/12/13 05:44:12;;;;;;;;;;;;;;;;;;5079761;28;19988;-68
2021/12/13 05:46:41;;;;;;;;;;;;;;;;;;5089525;28;19928;-67
2021/12/13 05:49:13;;;;;;;;;;;;;;;;;;5083628;28;20405;-67
2021/12/13 05:51:40;;;;;;;;;;;;;;;;;;5083625;28;19936;-67
2021/12/13 05:54:22;;;;;;;;;;;;;;;;;;5087564;28;20024;-67
2021/12/13 05:56:50;;;;;;;;;;;;;;;;;;5083750;28;19932;-67
2021/12/13 05:59:24;;;;;;;;;;;;;;;;;;5085504;28;19932;-67
2021/12/13 06:01:53;;;;;;;;;;;;;;;;;;5080882;28;19938;-67
2021/12/13 06:04:23;;;;;;;;;;;;;;;;;;5082099;28;19924;-67
2021/12/13 06:06:52;;;;;;;;;;;;;;;;;;5080677;28;19943;-67
2021/12/13 06:09:21;;;;;;;;;;;;;;;;;;5084421;28;19939;-67
2021/12/13 06:11:54;;;;;;;;;;;;;;;;;;5088134;28;20385;-67
2021/12/13 06:14:25;;;;;;;;;;;;;;;;;;5095817;28;21011;-67
2021/12/13 06:16:55;;;;;;;;;;;;;;;;;;5080132;28;19933;-67
2021/12/13 06:19:27;;;;;;;;;;;;;;;;;;5085197;28;19970;-67
2021/12/13 06:21:59;;;;;;;;;;;;;;;;;;5083956;28;19924;-67
2021/12/13 06:24:33;;;;;;;;;;;;;;;;;;5081105;28;20276;-67
2021/12/13 06:27:20;;;;;;;;;;;;;;;;;;5081719;28;19928;-67
2021/12/13 06:29:52;;;;;;;;;;;;;;;;;;5081823;28;19928;-67
2021/12/13 06:32:21;;;;;;;;;;;;;;;;;;5085174;28;19942;-67
2021/12/13 06:34:50;;;;;;;;;;;;;;;;;;5083017;28;19962;-67
2021/12/13 06:37:21;;;;;;;;;;;;;;;;;;5085729;28;19976;-67
2021/12/13 06:39:48;;;;;;;;;;;;;;;;;;5077265;28;19932;-70
2021/12/13 06:42:22;;;;;;;;;;;;;;;;;;5082016;28;19924;-70
2021/12/13 06:44:56;;;;;;;;;;;;;;;;;;5083205;28;19928;-71
2021/12/13 06:47:29;;;;;;;;;;;;;;;;;;5080029;28;19924;-71
2021/12/13 06:50:25;;;;;;;;;;;;;;;;;;5082266;28;19932;-71
2021/12/13 06:52:54;;;;;;;;;;;;;;;;;;5073687;28;19924;-70
2021/12/13 06:55:28;;;;;;;;;;;;;;;;;;5085363;28;20010;-70
2021/12/13 06:58:00;;;;;;;;;;;;;;;;;;5085443;28;19931;-70
2021/12/13 07:00:30;;;;;;;;;;;;;;;;;;5079928;28;19944;-70
2021/12/13 07:02:59;;;;;;;;;;;;;;;;;;5066257;28;19931;-70
2021/12/13 07:05:30;;;;;;;;;;;;;;;;;;5081388;28;19934;-71
2021/12/13 07:08:02;;;;;;;;;;;;;;;;;;5090563;28;19924;-69
2021/12/13 07:10:33;;;;;;;;;;;;;;;;;;5081866;28;19932;-70
2021/12/13 07:13:04;;;;;;;;;;;;;;;;;;5085095;28;19925;-70
2021/12/13 07:15:34;;;;;;;;;;;;;;;;;;5080761;28;19930;-69
2021/12/13 07:18:03;;;;;;;;;;;;;;;;;;5086666;28;19930;-69
2021/12/13 07:20:30;;;;;;;;;;;;;;;;;;5080297;28;19973;-68
2021/12/13 07:23:01;;;;;;;;;;;;;;;;;;5083252;28;20362;-69
2021/12/13 07:25:36;;;;;;;;;;;;;;;;;;5086663;28;20566;-67
2021/12/13 07:28:34;;;;;;;;;;;;;;;;;;5076135;28;19974;-71
2021/12/13 07:31:05;;;;;;;;;;;;;;;;;;5071559;28;19931;-69
2021/12/13 07:33:35;;;;;;;;;;;;;;;;;;5087815;28;20349;-66
2021/12/13 07:36:04;;;;;;;;;;;;;;;;;;5095452;28;20335;-64
2021/12/13 07:38:34;;;;;;;;;;;;;;;;;;5081620;28;19939;-65
2021/12/13 07:41:03;;;;;;;;;;;;;;;;;;5092128;28;19930;-66
2021/12/13 07:43:31;;;;;;;;;;;;;;;;;;5084993;28;19924;-66
2021/12/13 07:46:20;;;;;;;;;;;;;;;;;;5086126;28;19924;-66
2021/12/13 07:48:51;;;;;;;;;;;;;;;;;;5081796;28;19939;-66
2021/12/13 07:51:30;;;;;;;;;;;;;;;;;;5096880;28;19915;-66
2021/12/13 07:54:06;;;;;;;;;;;;;;;;;;5072737;28;19928;-66
2021/12/13 07:56:36;;;;;;;;;;;;;;;;;;5083627;28;20015;-66
2021/12/13 07:59:07;;;;;;;;;;;;;;;;;;5081198;28;19934;-65
2021/12/13 08:01:37;;;;;;;;;;;;;;;;;;5091012;28;19935;-66
2021/12/13 08:04:05;;;;;;;;;;;;;;;;;;5085467;28;19935;-66
2021/12/13 08:06:40;;;;;;;;;;;;;;;;;;5069504;28;19938;-66
2021/12/13 08:09:08;;;;;;;;;;;;;;;;;;5069731;28;19955;-70
2021/12/13 08:11:37;;;;;;;;;;;;;;;;;;5078118;28;19928;-66
2021/12/13 08:14:08;;;;;;;;;;;;;;;;;;5077152;28;20410;-66
2021/12/13 08:16:37;;;;;;;;;;;;;;;;;;5072121;28;19972;-66
2021/12/13 08:19:08;;;;;;;;;;;;;;;;;;5081486;28;19932;-64
2021/12/13 08:21:37;;;;;;;;;;;;;;;;;;5079080;28;19924;-65
2021/12/13 08:24:04;;;;;;;;;;;;;;;;;;5082281;28;19924;-66
2021/12/13 08:26:32;;;;;;;;;;;;;;;;;;5082732;28;20722;-67
2021/12/13 08:29:04;;;;;;;;;;;;;;;;;;5078183;28;19973;-66
2021/12/13 08:31:35;;;;;;;;;;;;;;;;;;5079472;28;20029;-66
2021/12/13 08:34:04;;;;;;;;;;;;;;;;;;5079738;28;19936;-69
2021/12/13 08:36:32;;;;;;;;;;;;;;;;;;5074937;28;19928;-69
2021/12/13 08:39:03;;;;;;;;;;;;;;;;;;5080588;28;19928;-68
2021/12/13 08:41:35;;;;;;;;;;;;;;;;;;5082466;28;19932;-68
2021/12/13 08:44:06;;;;;;;;;;;;;;;;;;5079549;28;19929;-68
2021/12/13 08:46:43;;;;;;;;;;;;;;;;;;5084412;28;19930;-69
2021/12/13 08:49:11;;;;;;;;;;;;;;;;;;5084666;28;19935;-67
2021/12/13 08:51:38;;;;;;;;;;;;;;;;;;5068323;28;19932;-68
2021/12/13 08:54:06;;;;;;;;;;;;;;;;;;5084532;28;19928;-68
2021/12/13 08:56:35;;;;;;;;;;;;;;;;;;5079288;28;19942;-65
2021/12/13 08:59:08;;;;;;;;;;;;;;;;;;5076902;28;20318;-67
2021/12/13 09:01:44;;;;;;;;;;;;;;;;;;5064414;28;20348;-69
2021/12/13 09:04:16;;;;;;;;;;;;;;;;;;5083063;28;20504;-67
2021/12/13 09:06:52;;;;;;;;;;;;;;;;;;5080625;28;20492;-66
2021/12/13 09:09:21;;;;;;;;;;;;;;;;;;5086595;28;19928;-65
2021/12/13 09:11:56;;;;;;;;;;;;;;;;;;5083826;28;19939;-66
2021/12/13 09:14:39;;;;;;;;;;;;;;;;;;5082888;28;20035;-65
2021/12/13 09:17:11;;;;;;;;;;;;;;;;;;5083452;28;19935;-65
2021/12/13 09:19:42;;;;;;;;;;;;;;;;;;5078630;28;20383;-64
2021/12/13 09:22:12;;;;;;;;;;;;;;;;;;5084473;28;19928;-65
2021/12/13 09:24:43;;;;;;;;;;;;;;;;;;5082816;28;20500;-66
2021/12/13 09:27:12;;;;;;;;;;;;;;;;;;5084349;28;19931;-65
2021/12/13 09:29:46;;;;;;;;;;;;;;;;;;5072302;28;19929;-66
2021/12/13 09:32:15;;;;;;;;;;;;;;;;;;5081366;28;19934;-68
2021/12/13 09:34:45;;;;;;;;;;;;;;;;;;5080467;28;19924;-66
2021/12/13 09:37:17;;;;;;;;;;;;;;;;;;5086241;28;20019;-65
2021/12/13 09:39:48;;;;;;;;;;;;;;;;;;5096711;28;20327;-66
2021/12/13 09:42:24;;;;;;;;;;;;;;;;;;5085095;28;21585;-68
2021/12/13 09:44:56;;;;;;;;;;;;;;;;;;5093727;28;20397;-66
2021/12/13 09:47:27;;;;;;;;;;;;;;;;;;5081269;28;19932;-68
2021/12/13 09:49:59;;;;;;;;;;;;;;;;;;5084636;28;19978;-71
2021/12/13 09:52:27;;;;;;;;;;;;;;;;;;5067159;28;19932;-71
2021/12/13 09:54:55;;;;;;;;;;;;;;;;;;5053743;28;21114;-70
2021/12/13 09:57:24;;;;;;;;;;;;;;;;;;5084840;28;19935;-70
2021/12/13 10:00:02;;;;;;;;;;;;;;;;;;5094220;28;19924;-71
2021/12/13 10:02:38;;;;;;;;;;;;;;;;;;5080705;28;20384;-69
2021/12/13 10:05:07;;;;;;;;;;;;;;;;;;5082295;28;19924;-68
2021/12/13 10:07:45;;;;;;;;;;;;;;;;;;5085194;28;19924;-67
2021/12/13 10:10:15;;;;;;;;;;;;;;;;;;5085267;28;20307;-70
2021/12/13 10:12:47;;;;;;;;;;;;;;;;;;5083654;28;19925;-70
2021/12/13 10:15:15;;;;;;;;;;;;;;;;;;5084799;28;19924;-69
2021/12/13 10:17:42;;;;;;;;;;;;;;;;;;5061937;28;19932;-67
2021/12/13 10:20:18;;;;;;;;;;;;;;;;;;5082028;28;19928;-67
2021/12/13 10:22:50;;;;;;;;;;;;;;;;;;5080335;28;19924;-67
2021/12/13 10:25:20;;;;;;;;;;;;;;;;;;5085051;28;19925;-67
2021/12/13 10:27:51;;;;;;;;;;;;;;;;;;5082082;28;19934;-65
2021/12/13 10:30:22;;;;;;;;;;;;;;;;;;5083184;28;20345;-68
2021/12/13 10:32:53;;;;;;;;;;;;;;;;;;5080027;28;19939;-69
2021/12/13 10:35:24;;;;;;;;;;;;;;;;;;5087823;28;19981;-69
2021/12/13 10:37:54;;;;;;;;;;;;;;;;;;5077949;28;20392;-69
2021/12/13 10:40:27;;;;;;;;;;;;;;;;;;5093565;28;19935;-69
2021/12/13 10:42:56;;;;;;;;;;;;;;;;;;5083087;28;19947;-69
2021/12/13 10:45:26;;;;;;;;;;;;;;;;;;5067566;28;20363;-67
2021/12/13 10:47:57;;;;;;;;;;;;;;;;;;5085081;28;19928;-67
2021/12/13 10:50:26;;;;;;;;;;;;;;;;;;5087312;28;19936;-67
2021/12/13 10:53:00;;;;;;;;;;;;;;;;;;5083886;28;20041;-70
2021/12/13 10:55:29;;;;;;;;;;;;;;;;;;5087983;28;19938;-70
2021/12/13 10:58:10;;;;;;;;;;;;;;;;;;5070531;28;19964;-70
2021/12/13 11:00:41;;;;;;;;;;;;;;;;;;5066593;28;19924;-69
2021/12/13 11:03:12;;;;;;;;;;;;;;;;;;5085618;28;19932;-70
2021/12/13 11:05:49;;;;;;;;;;;;;;;;;;5082065;28;20015;-69
2021/12/13 11:08:18;;;;;;;;;;;;;;;;;;5087756;28;19928;-67
2021/12/13 11:10:47;;;;;;;;;;;;;;;;;;5086612;28;19973;-68
2021/12/13 11:13:20;;;;;;;;;;;;;;;;;;5088565;28;19935;-68
2021/12/13 11:15:50;;;;;;;;;;;;;;;;;;5086661;28;19928;-69
2021/12/13 11:18:26;;;;;;;;;;;;;;;;;;5084307;28;19924;-72
2021/12/13 11:21:01;;;;;;;;;;;;;;;;;;5088203;28;19924;-71
2021/12/13 11:23:48;;;;;;;;;;;;;;;;;;5062471;28;19936;-71
2021/12/13 11:26:22;;;;;;;;;;;;;;;;;;5085714;28;19931;-73
2021/12/13 11:28:56;;;;;;;;;;;;;;;;;;5082670;28;20362;-72
2021/12/13 11:31:26;;;;;;;;;;;;;;;;;;5090022;28;19924;-72
2021/12/13 11:33:56;;;;;;;;;;;;;;;;;;5089458;28;19943;-72
2021/12/13 11:36:27;;;;;;;;;;;;;;;;;;5080314;28;19924;-72
2021/12/13 11:38:57;;;;;;;;;;;;;;;;;;5080907;28;19939;-70
2021/12/13 11:41:27;;;;;;;;;;;;;;;;;;5083415;28;19932;-67
2021/12/13 11:43:58;;;;;;;;;;;;;;;;;;5087258;28;19984;-68
2021/12/13 11:46:29;;;;;;;;;;;;;;;;;;5079518;28;19972;-67
2021/12/13 11:48:57;;;;;;;;;;;;;;;;;;5092179;28;19932;-67
2021/12/13 11:51:28;;;;;;;;;;;;;;;;;;5090126;28;19947;-68
2021/12/13 11:53:59;;;;;;;;;;;;;;;;;;5087182;28;19931;-68
2021/12/13 11:56:30;;;;;;;;;;;;;;;;;;5087325;28;19950;-68
2021/12/13 11:59:01;;;;;;;;;;;;;;;;;;5099696;28;19924;-68
2021/12/13 12:01:33;;;;;;;;;;;;;;;;;;5087905;28;19924;-67
2021/12/13 12:04:04;;;;;;;;;;;;;;;;;;5087828;28;19955;-67
2021/12/13 12:06:36;;;;;;;;;;;;;;;;;;5068474;28;19925;-68
2021/12/13 12:09:04;;;;;;;;;;;;;;;;;;5085973;28;19924;-68
2021/12/13 12:11:40;;;;;;;;;;;;;;;;;;5086063;28;19927;-68
2021/12/13 12:14:12;;;;;;;;;;;;;;;;;;5085838;28;20257;-68
2021/12/13 12:16:44;;;;;;;;;;;;;;;;;;5062665;28;19924;-67
2021/12/13 12:19:15;;;;;;;;;;;;;;;;;;5086335;28;20401;-67
2021/12/13 12:21:46;;;;;;;;;;;;;;;;;;5086477;28;19932;-66
2021/12/13 12:24:18;;;;;;;;;;;;;;;;;;5081904;28;19932;-67
2021/12/13 12:26:52;;;;;;;;;;;;;;;;;;5083491;28;19928;-67
2021/12/13 12:29:25;;;;;;;;;;;;;;;;;;5077181;28;19932;-67
2021/12/13 12:31:56;;;;;;;;;;;;;;;;;;5082621;28;19932;-67
2021/12/13 12:34:28;;;;;;;;;;;;;;;;;;5086389;28;19931;-67
2021/12/13 12:37:00;;;;;;;;;;;;;;;;;;5087064;28;20257;-67
2021/12/13 12:39:31;;;;;;;;;;;;;;;;;;5082588;28;19931;-68
2021/12/13 12:42:04;;;;;;;;;;;;;;;;;;5072690;28;19924;-67
2021/12/13 12:44:41;;;;;;;;;;;;;;;;;;5079328;28;19935;-70
2021/12/13 12:47:10;;;;;;;;;;;;;;;;;;5068196;28;19980;-69
2021/12/13 12:49:41;;;;;;;;;;;;;;;;;;5078029;28;19928;-70
2021/12/13 12:52:11;;;;;;;;;;;;;;;;;;5088977;28;19988;-71
2021/12/13 12:54:41;;;;;;;;;;;;;;;;;;5082622;28;19976;-70
2021/12/13 12:57:12;;;;;;;;;;;;;;;;;;5087440;28;19968;-70
2021/12/13 12:59:43;;;;;;;;;;;;;;;;;;5087038;28;19928;-70
2021/12/13 13:02:13;;;;;;;;;;;;;;;;;;5078520;28;19936;-70
2021/12/13 13:04:45;;;;;;;;;;;;;;;;;;5078411;28;19958;-70
2021/12/13 13:07:16;;;;;;;;;;;;;;;;;;5091877;28;19925;-71
2021/12/13 13:09:47;;;;;;;;;;;;;;;;;;5088823;28;19930;-70
2021/12/13 13:12:17;;;;;;;;;;;;;;;;;;5087071;28;20030;-70
2021/12/13 13:14:48;;;;;;;;;;;;;;;;;;5087242;28;19931;-70
2021/12/13 13:17:19;;;;;;;;;;;;;;;;;;5086075;28;19935;-69
2021/12/13 13:19:48;;;;;;;;;;;;;;;;;;5087266;28;19924;-70
2021/12/13 13:22:20;;;;;;;;;;;;;;;;;;5089666;28;19929;-70
2021/12/13 13:25:04;;;;;;;;;;;;;;;;;;5093324;28;19923;-70
2021/12/13 13:27:34;;;;;;;;;;;;;;;;;;5083732;28;19928;-70
2021/12/13 13:30:05;;;;;;;;;;;;;;;;;;5085822;28;19928;-70
2021/12/13 13:32:35;;;;;;;;;;;;;;;;;;5086226;28;19928;-70
2021/12/13 13:35:16;;;;;;;;;;;;;;;;;;5070523;28;19928;-69
2021/12/13 13:38:01;;;;;;;;;;;;;;;;;;5082128;28;19924;-71
2021/12/13 13:40:30;;;;;;;;;;;;;;;;;;5084269;28;19963;-75
2021/12/13 13:42:59;;;;;;;;;;;;;;;;;;5082485;28;20338;-75
2021/12/13 13:45:34;;;;;;;;;;;;;;;;;;5085816;28;19934;-77
2021/12/13 13:48:04;;;;;;;;;;;;;;;;;;5081364;28;20549;-74
2021/12/13 13:50:32;;;;;;;;;;;;;;;;;;5079155;28;19928;-70
2021/12/13 13:53:02;;;;;;;;;;;;;;;;;;5073009;28;19931;-69
2021/12/13 13:55:31;;;;;;;;;;;;;;;;;;5081609;28;19924;-69
2021/12/13 13:58:02;;;;;;;;;;;;;;;;;;5090386;28;20471;-70
2021/12/13 14:00:34;;;;;;;;;;;;;;;;;;5079815;28;19955;-68
2021/12/13 14:03:08;;;;;;;;;;;;;;;;;;5083890;28;19989;-68
2021/12/13 14:05:40;;;;;;;;;;;;;;;;;;5078130;28;19936;-69
2021/12/13 14:08:10;;;;;;;;;;;;;;;;;;5084945;28;19937;-68
2021/12/13 14:10:41;;;;;;;;;;;;;;;;;;5079464;28;19924;-68
2021/12/13 14:13:10;;;;;;;;;;;;;;;;;;5084291;28;19924;-67
2021/12/13 14:15:42;;;;;;;;;;;;;;;;;;5083884;28;19924;-67
2021/12/13 14:18:27;;;;;;;;;;;;;;;;;;5083566;28;19932;-69
2021/12/13 14:20:58;;;;;;;;;;;;;;;;;;5079433;28;20318;-67
2021/12/13 14:23:28;;;;;;;;;;;;;;;;;;5077534;28;19924;-68
2021/12/13 14:26:00;;;;;;;;;;;;;;;;;;5084929;28;19928;-69
2021/12/13 14:28:31;;;;;;;;;;;;;;;;;;5074031;28;19924;-69
2021/12/13 14:31:01;;;;;;;;;;;;;;;;;;5086064;28;19932;-70
2021/12/13 14:33:31;;;;;;;;;;;;;;;;;;5085827;28;19924;-69
2021/12/13 14:36:02;;;;;;;;;;;;;;;;;;5080210;28;19978;-68
2021/12/13 14:38:36;;;;;;;;;;;;;;;;;;5065664;28;20031;-68
2021/12/13 14:41:05;;;;;;;;;;;;;;;;;;5074081;28;19977;-67
2021/12/13 14:43:37;;;;;;;;;;;;;;;;;;5089963;28;20303;-68
2021/12/13 14:46:08;;;;;;;;;;;;;;;;;;5084412;28;19924;-71
2021/12/13 14:48:38;;;;;;;;;;;;;;;;;;5069919;28;19939;-69
2021/12/13 14:51:09;;;;;;;;;;;;;;;;;;5081047;28;20445;-69
2021/12/13 14:53:37;;;;;;;;;;;;;;;;;;5087270;28;20395;-70
2021/12/13 14:56:06;;;;;;;;;;;;;;;;;;5066469;28;19932;-69
2021/12/13 14:58:36;;;;;;;;;;;;;;;;;;5079451;28;19936;-67
2021/12/13 15:01:06;;;;;;;;;;;;;;;;;;5092201;28;19924;-69
2021/12/13 15:03:36;;;;;;;;;;;;;;;;;;5088911;28;20974;-69
2021/12/13 15:06:05;;;;;;;;;;;;;;;;;;5088552;28;20391;-68
2021/12/13 15:08:34;;;;;;;;;;;;;;;;;;5089736;28;19924;-69
2021/12/13 15:11:10;;;;;;;;;;;;;;;;;;5091217;28;19928;-69
2021/12/13 15:13:43;;;;;;;;;;;;;;;;;;5087510;28;19932;-69
2021/12/13 15:16:14;;;;;;;;;;;;;;;;;;5098461;28;19975;-68
2021/12/13 15:18:46;;;;;;;;;;;;;;;;;;5084207;28;20451;-68
2021/12/13 15:21:17;;;;;;;;;;;;;;;;;;5094385;28;19960;-69
2021/12/13 15:24:06;;;;;;;;;;;;;;;;;;5094426;28;19932;-69
2021/12/13 15:26:36;;;;;;;;;;;;;;;;;;5086574;28;19939;-68
2021/12/13 15:29:07;;;;;;;;;;;;;;;;;;5077154;28;19932;-69
2021/12/13 15:31:41;;;;;;;;;;;;;;;;;;5098892;28;19924;-69
2021/12/13 15:34:08;;;;;;;;;;;;;;;;;;5079986;28;20322;-69
2021/12/13 15:36:39;;;;;;;;;;;;;;;;;;5099235;28;20011;-68
2021/12/13 15:39:09;;;;;;;;;;;;;;;;;;5087491;28;20365;-68
2021/12/13 15:41:39;;;;;;;;;;;;;;;;;;5095995;28;20042;-68
2021/12/13 15:44:14;;;;;;;;;;;;;;;;;;5075121;28;19924;-70
2021/12/13 15:46:50;;;;;;;;;;;;;;;;;;5084736;28;19925;-70
2021/12/13 15:49:34;;;;;;;;;;;;;;;;;;5079541;28;20486;-71
2021/12/13 15:52:07;;;;;;;;;;;;;;;;;;5085472;28;19996;-71
2021/12/13 15:54:41;;;;;;;;;;;;;;;;;;5080862;28;19928;-70
2021/12/13 15:57:12;;;;;;;;;;;;;;;;;;5090637;28;19938;-70
2021/12/13 15:59:42;;;;;;;;;;;;;;;;;;5083466;28;19935;-70
2021/12/13 16:02:13;;;;;;;;;;;;;;;;;;5088267;28;19932;-70
2021/12/13 16:04:53;;;;;;;;;;;;;;;;;;5082062;28;19928;-71
2021/12/13 16:07:27;;;;;;;;;;;;;;;;;;5071105;28;19992;-70
2021/12/13 16:09:58;;;;;;;;;;;;;;;;;;5087064;28;19947;-70
2021/12/13 16:12:29;;;;;;;;;;;;;;;;;;5084801;28;20523;-70
2021/12/13 16:14:59;;;;;;;;;;;;;;;;;;5083610;28;19924;-70
2021/12/13 16:17:32;;;;;;;;;;;;;;;;;;5088450;28;19924;-70
2021/12/13 16:20:01;;;;;;;;;;;;;;;;;;5078788;28;19934;-70
2021/12/13 16:22:36;;;;;;;;;;;;;;;;;;5092270;28;20244;-71
2021/12/13 16:25:13;;;;;;;;;;;;;;;;;;5092954;28;20440;-70
2021/12/13 16:27:40;;;;;;;;;;;;;;;;;;5100435;28;19924;-70
2021/12/13 16:30:11;;;;;;;;;;;;;;;;;;5088369;28;19923;-70
2021/12/13 16:32:42;;;;;;;;;;;;;;;;;;5086826;28;19938;-71
2021/12/13 16:35:13;;;;;;;;;;;;;;;;;;5089473;28;19935;-70
2021/12/13 16:37:45;;;;;;;;;;;;;;;;;;5082091;28;19924;-70
2021/12/13 16:40:14;;;;;;;;;;;;;;;;;;5086023;28;19928;-70
2021/12/13 16:42:43;;;;;;;;;;;;;;;;;;5084827;28;19925;-70
2021/12/13 16:45:12;;;;;;;;;;;;;;;;;;5089121;28;20399;-70
2021/12/13 16:47:42;;;;;;;;;;;;;;;;;;5087237;28;19972;-70
2021/12/13 16:50:13;;;;;;;;;;;;;;;;;;5086280;28;19977;-70
2021/12/13 16:52:43;;;;;;;;;;;;;;;;;;5082312;28;19935;-70
2021/12/13 16:55:12;;;;;;;;;;;;;;;;;;5079795;28;19924;-70
2021/12/13 16:57:42;;;;;;;;;;;;;;;;;;5076246;28;19939;-70
2021/12/13 17:00:13;;;;;;;;;;;;;;;;;;5086368;28;19924;-70
2021/12/13 17:02:41;;;;;;;;;;;;;;;;;;5087196;28;19924;-70
2021/12/13 17:05:10;;;;;;;;;;;;;;;;;;5083955;28;19924;-70
2021/12/13 17:07:43;;;;;;;;;;;;;;;;;;5088202;28;20368;-70
2021/12/13 17:10:12;;;;;;;;;;;;;;;;;;5080283;28;19924;-70
2021/12/13 17:12:42;;;;;;;;;;;;;;;;;;5086468;28;19924;-70
2021/12/13 17:15:13;;;;;;;;;;;;;;;;;;5069978;28;19927;-71
2021/12/13 17:17:47;;;;;;;;;;;;;;;;;;5083999;28;19948;-70
2021/12/13 17:20:18;;;;;;;;;;;;;;;;;;5088608;28;19928;-70